sensor_id;sensor_type;location;lat;lon;timestamp;P1;durP1;ratioP1;P2;durP2;ratioP2
6217;SDS011;3142;48.206;11.550;2024-03-17T00:01:56;2.87;;;2.57;;
6217;SDS011;3142;48.206;11.550;2024-03-17T00:04:24;3.50;;;3.20;;
6217;SDS011;3142;48.206;11.550;2024-03-17T00:06:49;5.80;;;3.43;;
6217;SDS011;3142;48.206;11.550;2024-03-17T00:09:16;2.80;;;2.50;;
6217;SDS011;3142;48.206;11.550;2024-03-17T00:11:43;3.80;;;2.60;;
6217;SDS011;3142;48.206;11.550;2024-03-17T00:14:10;4.23;;;3.43;;
6217;SDS011;3142;48.206;11.550;2024-03-17T00:16:36;6.30;;;4.53;;
6217;SDS011;3142;48.206;11.550;2024-03-17T00:19:04;4.37;;;3.20;;
6217;SDS011;3142;48.206;11.550;2024-03-17T00:21:32;3.00;;;2.60;;
6217;SDS011;3142;48.206;11.550;2024-03-17T00:23:58;2.83;;;2.53;;
6217;SDS011;3142;48.206;11.550;2024-03-17T00:26:24;3.80;;;3.07;;
6217;SDS011;3142;48.206;11.550;2024-03-17T00:28:50;3.33;;;2.50;;
6217;SDS011;3142;48.206;11.550;2024-03-17T00:31:16;4.13;;;2.77;;
6217;SDS011;3142;48.206;11.550;2024-03-17T00:33:43;4.53;;;2.50;;
6217;SDS011;3142;48.206;11.550;2024-03-17T00:36:09;3.60;;;3.00;;
6217;SDS011;3142;48.206;11.550;2024-03-17T00:38:37;5.03;;;3.07;;
6217;SDS011;3142;48.206;11.550;2024-03-17T00:41:02;3.17;;;2.67;;
6217;SDS011;3142;48.206;11.550;2024-03-17T00:43:29;4.03;;;3.03;;
6217;SDS011;3142;48.206;11.550;2024-03-17T00:45:55;3.60;;;2.90;;
6217;SDS011;3142;48.206;11.550;2024-03-17T00:48:21;3.03;;;2.57;;
6217;SDS011;3142;48.206;11.550;2024-03-17T00:50:47;7.80;;;2.80;;
6217;SDS011;3142;48.206;11.550;2024-03-17T00:53:21;3.20;;;2.90;;
6217;SDS011;3142;48.206;11.550;2024-03-17T00:55:51;3.73;;;3.23;;
6217;SDS011;3142;48.206;11.550;2024-03-17T00:58:19;3.70;;;2.47;;
6217;SDS011;3142;48.206;11.550;2024-03-17T01:00:45;3.80;;;3.10;;
6217;SDS011;3142;48.206;11.550;2024-03-17T01:03:12;3.33;;;2.60;;
6217;SDS011;3142;48.206;11.550;2024-03-17T01:05:38;3.67;;;3.00;;
6217;SDS011;3142;48.206;11.550;2024-03-17T01:08:07;4.30;;;3.00;;
6217;SDS011;3142;48.206;11.550;2024-03-17T01:10:33;3.00;;;2.73;;
6217;SDS011;3142;48.206;11.550;2024-03-17T01:13:00;3.07;;;2.77;;
6217;SDS011;3142;48.206;11.550;2024-03-17T01:15:26;3.20;;;2.77;;
6217;SDS011;3142;48.206;11.550;2024-03-17T01:17:52;4.37;;;3.03;;
6217;SDS011;3142;48.206;11.550;2024-03-17T01:20:18;3.90;;;2.93;;
6217;SDS011;3142;48.206;11.550;2024-03-17T01:22:44;3.53;;;2.80;;
6217;SDS011;3142;48.206;11.550;2024-03-17T01:25:10;4.53;;;2.90;;
6217;SDS011;3142;48.206;11.550;2024-03-17T01:27:37;5.00;;;3.20;;
6217;SDS011;3142;48.206;11.550;2024-03-17T01:30:04;3.63;;;3.03;;
6217;SDS011;3142;48.206;11.550;2024-03-17T01:32:32;2.97;;;2.77;;
6217;SDS011;3142;48.206;11.550;2024-03-17T01:34:57;3.43;;;3.13;;
6217;SDS011;3142;48.206;11.550;2024-03-17T01:37:23;4.57;;;3.30;;
6217;SDS011;3142;48.206;11.550;2024-03-17T01:39:49;4.17;;;3.07;;
6217;SDS011;3142;48.206;11.550;2024-03-17T01:42:16;3.30;;;3.00;;
6217;SDS011;3142;48.206;11.550;2024-03-17T01:44:41;4.40;;;2.63;;
6217;SDS011;3142;48.206;11.550;2024-03-17T01:47:09;12.97;;;10.50;;
6217;SDS011;3142;48.206;11.550;2024-03-17T01:49:35;10.97;;;8.23;;
6217;SDS011;3142;48.206;11.550;2024-03-17T01:52:01;4.93;;;4.47;;
6217;SDS011;3142;48.206;11.550;2024-03-17T01:54:28;4.57;;;4.10;;
6217;SDS011;3142;48.206;11.550;2024-03-17T01:56:56;4.23;;;3.80;;
6217;SDS011;3142;48.206;11.550;2024-03-17T01:59:21;4.50;;;3.20;;
6217;SDS011;3142;48.206;11.550;2024-03-17T02:01:48;3.87;;;3.27;;
6217;SDS011;3142;48.206;11.550;2024-03-17T02:04:15;4.83;;;3.93;;
6217;SDS011;3142;48.206;11.550;2024-03-17T02:06:42;4.90;;;3.90;;
6217;SDS011;3142;48.206;11.550;2024-03-17T02:09:08;4.77;;;3.63;;
6217;SDS011;3142;48.206;11.550;2024-03-17T02:11:35;6.17;;;4.13;;
6217;SDS011;3142;48.206;11.550;2024-03-17T02:14:00;4.17;;;3.77;;
6217;SDS011;3142;48.206;11.550;2024-03-17T02:16:27;4.20;;;3.80;;
6217;SDS011;3142;48.206;11.550;2024-03-17T02:18:56;4.10;;;3.70;;
6217;SDS011;3142;48.206;11.550;2024-03-17T02:21:24;4.37;;;3.93;;
6217;SDS011;3142;48.206;11.550;2024-03-17T02:23:53;5.03;;;3.77;;
6217;SDS011;3142;48.206;11.550;2024-03-17T02:26:20;5.90;;;3.97;;
6217;SDS011;3142;48.206;11.550;2024-03-17T02:28:46;4.47;;;4.07;;
6217;SDS011;3142;48.206;11.550;2024-03-17T02:31:15;4.30;;;3.87;;
6217;SDS011;3142;48.206;11.550;2024-03-17T02:33:41;5.17;;;4.00;;
6217;SDS011;3142;48.206;11.550;2024-03-17T02:36:08;5.20;;;3.90;;
6217;SDS011;3142;48.206;11.550;2024-03-17T02:38:36;4.70;;;4.30;;
6217;SDS011;3142;48.206;11.550;2024-03-17T02:41:22;4.80;;;4.00;;
6217;SDS011;3142;48.206;11.550;2024-03-17T02:43:49;5.20;;;3.97;;
6217;SDS011;3142;48.206;11.550;2024-03-17T02:46:16;5.43;;;3.87;;
6217;SDS011;3142;48.206;11.550;2024-03-17T02:48:45;4.10;;;3.60;;
6217;SDS011;3142;48.206;11.550;2024-03-17T02:51:13;5.13;;;3.97;;
6217;SDS011;3142;48.206;11.550;2024-03-17T02:53:41;4.53;;;4.00;;
6217;SDS011;3142;48.206;11.550;2024-03-17T02:56:08;4.20;;;3.70;;
6217;SDS011;3142;48.206;11.550;2024-03-17T02:58:35;4.83;;;4.03;;
6217;SDS011;3142;48.206;11.550;2024-03-17T03:01:03;6.97;;;4.40;;
6217;SDS011;3142;48.206;11.550;2024-03-17T03:03:30;4.30;;;3.90;;
6217;SDS011;3142;48.206;11.550;2024-03-17T03:05:57;4.70;;;4.30;;
6217;SDS011;3142;48.206;11.550;2024-03-17T03:08:23;5.10;;;4.17;;
6217;SDS011;3142;48.206;11.550;2024-03-17T03:10:50;4.30;;;3.90;;
6217;SDS011;3142;48.206;11.550;2024-03-17T03:13:17;4.17;;;3.77;;
6217;SDS011;3142;48.206;11.550;2024-03-17T03:15:45;5.70;;;3.77;;
6217;SDS011;3142;48.206;11.550;2024-03-17T03:18:12;4.70;;;4.27;;
6217;SDS011;3142;48.206;11.550;2024-03-17T03:20:39;5.20;;;4.40;;
6217;SDS011;3142;48.206;11.550;2024-03-17T03:23:06;6.47;;;4.57;;
6217;SDS011;3142;48.206;11.550;2024-03-17T03:25:32;4.50;;;3.60;;
6217;SDS011;3142;48.206;11.550;2024-03-17T03:27:59;4.83;;;4.30;;
6217;SDS011;3142;48.206;11.550;2024-03-17T03:30:27;5.23;;;3.80;;
6217;SDS011;3142;48.206;11.550;2024-03-17T03:32:54;5.33;;;3.97;;
6217;SDS011;3142;48.206;11.550;2024-03-17T03:35:21;5.13;;;4.43;;
6217;SDS011;3142;48.206;11.550;2024-03-17T03:37:49;4.80;;;4.20;;
6217;SDS011;3142;48.206;11.550;2024-03-17T03:40:16;5.43;;;4.33;;
6217;SDS011;3142;48.206;11.550;2024-03-17T03:42:43;4.63;;;4.17;;
6217;SDS011;3142;48.206;11.550;2024-03-17T03:45:10;4.63;;;4.13;;
6217;SDS011;3142;48.206;11.550;2024-03-17T03:47:37;4.40;;;4.00;;
6217;SDS011;3142;48.206;11.550;2024-03-17T03:50:06;4.37;;;3.97;;
6217;SDS011;3142;48.206;11.550;2024-03-17T03:52:34;5.17;;;4.00;;
6217;SDS011;3142;48.206;11.550;2024-03-17T03:55:00;4.97;;;4.10;;
6217;SDS011;3142;48.206;11.550;2024-03-17T03:57:29;5.10;;;4.10;;
6217;SDS011;3142;48.206;11.550;2024-03-17T03:59:57;4.60;;;4.03;;
6217;SDS011;3142;48.206;11.550;2024-03-17T04:02:23;5.20;;;4.43;;
6217;SDS011;3142;48.206;11.550;2024-03-17T04:04:52;4.80;;;4.27;;
6217;SDS011;3142;48.206;11.550;2024-03-17T04:07:20;6.37;;;4.20;;
6217;SDS011;3142;48.206;11.550;2024-03-17T04:09:46;5.37;;;4.13;;
6217;SDS011;3142;48.206;11.550;2024-03-17T04:12:13;5.13;;;4.63;;
6217;SDS011;3142;48.206;11.550;2024-03-17T04:14:39;5.13;;;4.67;;
6217;SDS011;3142;48.206;11.550;2024-03-17T04:17:06;4.83;;;4.27;;
6217;SDS011;3142;48.206;11.550;2024-03-17T04:19:32;9.30;;;4.27;;
6217;SDS011;3142;48.206;11.550;2024-03-17T04:21:59;4.30;;;3.73;;
6217;SDS011;3142;48.206;11.550;2024-03-17T04:24:27;6.37;;;4.47;;
6217;SDS011;3142;48.206;11.550;2024-03-17T04:26:53;4.83;;;4.10;;
6217;SDS011;3142;48.206;11.550;2024-03-17T04:29:20;5.07;;;4.53;;
6217;SDS011;3142;48.206;11.550;2024-03-17T04:31:46;5.90;;;4.63;;
6217;SDS011;3142;48.206;11.550;2024-03-17T04:34:14;5.33;;;4.40;;
6217;SDS011;3142;48.206;11.550;2024-03-17T04:36:41;5.60;;;4.40;;
6217;SDS011;3142;48.206;11.550;2024-03-17T04:39:07;5.23;;;4.30;;
6217;SDS011;3142;48.206;11.550;2024-03-17T04:41:35;6.33;;;4.93;;
6217;SDS011;3142;48.206;11.550;2024-03-17T04:44:03;5.73;;;4.37;;
6217;SDS011;3142;48.206;11.550;2024-03-17T04:46:31;49.80;;;36.57;;
6217;SDS011;3142;48.206;11.550;2024-03-17T04:48:58;88.17;;;58.07;;
6217;SDS011;3142;48.206;11.550;2024-03-17T04:51:24;102.60;;;64.87;;
6217;SDS011;3142;48.206;11.550;2024-03-17T04:53:51;36.50;;;26.00;;
6217;SDS011;3142;48.206;11.550;2024-03-17T04:56:17;17.50;;;10.83;;
6217;SDS011;3142;48.206;11.550;2024-03-17T04:58:45;11.87;;;8.10;;
6217;SDS011;3142;48.206;11.550;2024-03-17T05:01:11;6.90;;;5.83;;
6217;SDS011;3142;48.206;11.550;2024-03-17T05:03:38;5.77;;;4.93;;
6217;SDS011;3142;48.206;11.550;2024-03-17T05:06:05;7.37;;;5.00;;
6217;SDS011;3142;48.206;11.550;2024-03-17T05:08:32;10.80;;;5.17;;
6217;SDS011;3142;48.206;11.550;2024-03-17T05:11:01;5.93;;;5.00;;
6217;SDS011;3142;48.206;11.550;2024-03-17T05:13:30;8.53;;;5.27;;
6217;SDS011;3142;48.206;11.550;2024-03-17T05:15:59;6.60;;;5.67;;
6217;SDS011;3142;48.206;11.550;2024-03-17T05:18:26;7.00;;;5.67;;
6217;SDS011;3142;48.206;11.550;2024-03-17T05:20:59;7.93;;;5.33;;
6217;SDS011;3142;48.206;11.550;2024-03-17T05:23:26;9.47;;;5.70;;
6217;SDS011;3142;48.206;11.550;2024-03-17T05:25:53;6.37;;;5.73;;
6217;SDS011;3142;48.206;11.550;2024-03-17T05:28:21;6.83;;;5.30;;
6217;SDS011;3142;48.206;11.550;2024-03-17T05:30:47;49.97;;;32.43;;
6217;SDS011;3142;48.206;11.550;2024-03-17T05:33:17;43.67;;;29.63;;
6217;SDS011;3142;48.206;11.550;2024-03-17T05:35:48;78.97;;;51.33;;
6217;SDS011;3142;48.206;11.550;2024-03-17T05:38:15;32.93;;;21.67;;
6217;SDS011;3142;48.206;11.550;2024-03-17T05:40:42;18.70;;;12.30;;
6217;SDS011;3142;48.206;11.550;2024-03-17T05:43:08;8.60;;;6.57;;
6217;SDS011;3142;48.206;11.550;2024-03-17T05:45:35;6.40;;;5.50;;
6217;SDS011;3142;48.206;11.550;2024-03-17T05:48:02;7.93;;;5.57;;
6217;SDS011;3142;48.206;11.550;2024-03-17T05:50:31;7.90;;;5.43;;
6217;SDS011;3142;48.206;11.550;2024-03-17T05:52:58;5.93;;;5.27;;
6217;SDS011;3142;48.206;11.550;2024-03-17T05:55:24;7.17;;;5.87;;
6217;SDS011;3142;48.206;11.550;2024-03-17T05:57:51;8.60;;;6.00;;
6217;SDS011;3142;48.206;11.550;2024-03-17T06:00:17;7.30;;;5.73;;
6217;SDS011;3142;48.206;11.550;2024-03-17T06:02:44;7.77;;;5.63;;
6217;SDS011;3142;48.206;11.550;2024-03-17T06:05:11;5.80;;;5.30;;
6217;SDS011;3142;48.206;11.550;2024-03-17T06:07:40;6.17;;;5.57;;
6217;SDS011;3142;48.206;11.550;2024-03-17T06:10:07;6.20;;;5.60;;
6217;SDS011;3142;48.206;11.550;2024-03-17T06:12:34;7.63;;;5.50;;
6217;SDS011;3142;48.206;11.550;2024-03-17T06:15:02;6.40;;;5.03;;
6217;SDS011;3142;48.206;11.550;2024-03-17T06:17:28;49.57;;;34.27;;
6217;SDS011;3142;48.206;11.550;2024-03-17T06:19:55;101.70;;;60.57;;
6217;SDS011;3142;48.206;11.550;2024-03-17T06:22:22;46.37;;;30.00;;
6217;SDS011;3142;48.206;11.550;2024-03-17T06:24:50;12.67;;;9.17;;
6217;SDS011;3142;48.206;11.550;2024-03-17T06:27:17;7.27;;;5.63;;
6217;SDS011;3142;48.206;11.550;2024-03-17T06:29:44;7.20;;;4.70;;
6217;SDS011;3142;48.206;11.550;2024-03-17T06:32:11;7.30;;;4.90;;
6217;SDS011;3142;48.206;11.550;2024-03-17T06:34:37;5.80;;;5.00;;
6217;SDS011;3142;48.206;11.550;2024-03-17T06:37:04;5.90;;;5.20;;
6217;SDS011;3142;48.206;11.550;2024-03-17T06:39:30;6.00;;;5.00;;
6217;SDS011;3142;48.206;11.550;2024-03-17T06:41:58;5.90;;;4.77;;
6217;SDS011;3142;48.206;11.550;2024-03-17T06:44:25;7.70;;;4.93;;
6217;SDS011;3142;48.206;11.550;2024-03-17T06:46:55;7.03;;;4.80;;
6217;SDS011;3142;48.206;11.550;2024-03-17T06:49:22;6.80;;;4.83;;
6217;SDS011;3142;48.206;11.550;2024-03-17T06:51:48;6.00;;;4.47;;
6217;SDS011;3142;48.206;11.550;2024-03-17T06:54:15;4.53;;;4.13;;
6217;SDS011;3142;48.206;11.550;2024-03-17T06:56:41;4.17;;;3.63;;
6217;SDS011;3142;48.206;11.550;2024-03-17T06:59:09;3.80;;;3.40;;
6217;SDS011;3142;48.206;11.550;2024-03-17T07:01:35;3.90;;;3.47;;
6217;SDS011;3142;48.206;11.550;2024-03-17T07:04:02;5.57;;;4.37;;
6217;SDS011;3142;48.206;11.550;2024-03-17T07:06:29;6.53;;;4.23;;
6217;SDS011;3142;48.206;11.550;2024-03-17T07:08:55;10.57;;;6.70;;
6217;SDS011;3142;48.206;11.550;2024-03-17T07:11:22;9.23;;;6.07;;
6217;SDS011;3142;48.206;11.550;2024-03-17T07:13:50;5.53;;;4.63;;
6217;SDS011;3142;48.206;11.550;2024-03-17T07:16:18;7.70;;;5.50;;
6217;SDS011;3142;48.206;11.550;2024-03-17T07:18:46;8.17;;;5.70;;
6217;SDS011;3142;48.206;11.550;2024-03-17T07:21:13;10.13;;;7.30;;
6217;SDS011;3142;48.206;11.550;2024-03-17T07:23:40;7.20;;;4.93;;
6217;SDS011;3142;48.206;11.550;2024-03-17T07:26:06;5.50;;;4.13;;
6217;SDS011;3142;48.206;11.550;2024-03-17T07:28:34;8.00;;;4.57;;
6217;SDS011;3142;48.206;11.550;2024-03-17T07:31:06;7.37;;;4.47;;
6217;SDS011;3142;48.206;11.550;2024-03-17T07:33:35;5.27;;;4.30;;
6217;SDS011;3142;48.206;11.550;2024-03-17T07:36:02;5.00;;;4.03;;
6217;SDS011;3142;48.206;11.550;2024-03-17T07:38:30;3.80;;;3.40;;
6217;SDS011;3142;48.206;11.550;2024-03-17T07:40:58;4.50;;;3.77;;
6217;SDS011;3142;48.206;11.550;2024-03-17T07:43:26;4.40;;;3.93;;
6217;SDS011;3142;48.206;11.550;2024-03-17T07:45:59;4.77;;;3.47;;
6217;SDS011;3142;48.206;11.550;2024-03-17T07:48:28;3.93;;;3.53;;
6217;SDS011;3142;48.206;11.550;2024-03-17T07:50:56;5.60;;;4.00;;
6217;SDS011;3142;48.206;11.550;2024-03-17T07:53:23;4.90;;;3.60;;
6217;SDS011;3142;48.206;11.550;2024-03-17T07:55:56;4.90;;;4.30;;
6217;SDS011;3142;48.206;11.550;2024-03-17T07:58:25;5.77;;;4.27;;
6217;SDS011;3142;48.206;11.550;2024-03-17T08:00:52;5.73;;;4.10;;
6217;SDS011;3142;48.206;11.550;2024-03-17T08:03:18;5.97;;;4.43;;
6217;SDS011;3142;48.206;11.550;2024-03-17T08:05:47;4.53;;;3.70;;
6217;SDS011;3142;48.206;11.550;2024-03-17T08:08:16;5.20;;;3.40;;
6217;SDS011;3142;48.206;11.550;2024-03-17T08:10:43;5.17;;;3.53;;
6217;SDS011;3142;48.206;11.550;2024-03-17T08:13:10;3.37;;;3.07;;
6217;SDS011;3142;48.206;11.550;2024-03-17T08:15:36;4.00;;;3.60;;
6217;SDS011;3142;48.206;11.550;2024-03-17T08:18:03;7.40;;;3.80;;
6217;SDS011;3142;48.206;11.550;2024-03-17T08:20:35;8.50;;;6.27;;
6217;SDS011;3142;48.206;11.550;2024-03-17T08:23:02;5.50;;;3.53;;
6217;SDS011;3142;48.206;11.550;2024-03-17T08:25:30;5.70;;;3.80;;
6217;SDS011;3142;48.206;11.550;2024-03-17T08:27:57;8.40;;;5.73;;
6217;SDS011;3142;48.206;11.550;2024-03-17T08:30:23;3.83;;;3.33;;
6217;SDS011;3142;48.206;11.550;2024-03-17T08:32:50;8.37;;;3.67;;
6217;SDS011;3142;48.206;11.550;2024-03-17T08:35:16;24.60;;;17.23;;
6217;SDS011;3142;48.206;11.550;2024-03-17T08:37:43;5.70;;;3.73;;
6217;SDS011;3142;48.206;11.550;2024-03-17T08:40:10;5.40;;;3.10;;
6217;SDS011;3142;48.206;11.550;2024-03-17T08:42:38;4.67;;;4.20;;
6217;SDS011;3142;48.206;11.550;2024-03-17T08:45:05;4.00;;;3.60;;
6217;SDS011;3142;48.206;11.550;2024-03-17T08:47:33;6.40;;;4.40;;
6217;SDS011;3142;48.206;11.550;2024-03-17T08:49:59;4.03;;;3.43;;
6217;SDS011;3142;48.206;11.550;2024-03-17T08:52:29;4.00;;;3.60;;
6217;SDS011;3142;48.206;11.550;2024-03-17T08:54:56;3.90;;;3.50;;
6217;SDS011;3142;48.206;11.550;2024-03-17T08:57:23;4.20;;;3.70;;
6217;SDS011;3142;48.206;11.550;2024-03-17T08:59:51;4.73;;;3.70;;
6217;SDS011;3142;48.206;11.550;2024-03-17T09:02:18;4.17;;;3.53;;
6217;SDS011;3142;48.206;11.550;2024-03-17T09:04:44;5.13;;;3.20;;
6217;SDS011;3142;48.206;11.550;2024-03-17T09:07:11;8.40;;;6.33;;
6217;SDS011;3142;48.206;11.550;2024-03-17T09:09:39;57.53;;;36.17;;
6217;SDS011;3142;48.206;11.550;2024-03-17T09:12:05;17.67;;;10.83;;
6217;SDS011;3142;48.206;11.550;2024-03-17T09:14:32;5.90;;;3.80;;
6217;SDS011;3142;48.206;11.550;2024-03-17T09:17:00;3.70;;;3.33;;
6217;SDS011;3142;48.206;11.550;2024-03-17T09:19:27;4.30;;;3.37;;
6217;SDS011;3142;48.206;11.550;2024-03-17T09:21:55;13.43;;;10.60;;
6217;SDS011;3142;48.206;11.550;2024-03-17T09:24:22;11.50;;;10.10;;
6217;SDS011;3142;48.206;11.550;2024-03-17T09:26:49;32.27;;;24.77;;
6217;SDS011;3142;48.206;11.550;2024-03-17T09:29:16;9.90;;;8.83;;
6217;SDS011;3142;48.206;11.550;2024-03-17T09:31:43;4.80;;;3.50;;
6217;SDS011;3142;48.206;11.550;2024-03-17T09:34:11;4.27;;;2.77;;
6217;SDS011;3142;48.206;11.550;2024-03-17T09:36:38;4.20;;;2.85;;
6217;SDS011;3142;48.206;11.550;2024-03-17T09:39:05;3.33;;;3.00;;
6217;SDS011;3142;48.206;11.550;2024-03-17T09:41:33;2.90;;;2.70;;
6217;SDS011;3142;48.206;11.550;2024-03-17T09:44:00;3.08;;;2.75;;
6217;SDS011;3142;48.206;11.550;2024-03-17T09:46:27;4.35;;;2.72;;
6217;SDS011;3142;48.206;11.550;2024-03-17T09:48:54;3.20;;;2.85;;
6217;SDS011;3142;48.206;11.550;2024-03-17T09:51:24;2.80;;;2.55;;
6217;SDS011;3142;48.206;11.550;2024-03-17T09:53:51;4.45;;;2.38;;
6217;SDS011;3142;48.206;11.550;2024-03-17T09:56:18;3.35;;;2.20;;
6217;SDS011;3142;48.206;11.550;2024-03-17T09:58:46;2.55;;;2.35;;
6217;SDS011;3142;48.206;11.550;2024-03-17T10:01:13;3.67;;;2.78;;
6217;SDS011;3142;48.206;11.550;2024-03-17T10:03:40;9.75;;;8.07;;
6217;SDS011;3142;48.206;11.550;2024-03-17T10:06:08;6.82;;;5.75;;
6217;SDS011;3142;48.206;11.550;2024-03-17T10:08:41;14.10;;;11.48;;
6217;SDS011;3142;48.206;11.550;2024-03-17T10:11:08;4.25;;;2.88;;
6217;SDS011;3142;48.206;11.550;2024-03-17T10:13:36;2.67;;;2.40;;
6217;SDS011;3142;48.206;11.550;2024-03-17T10:16:02;13.32;;;10.40;;
6217;SDS011;3142;48.206;11.550;2024-03-17T10:18:29;22.88;;;16.75;;
6217;SDS011;3142;48.206;11.550;2024-03-17T10:20:56;19.63;;;13.30;;
6217;SDS011;3142;48.206;11.550;2024-03-17T10:23:24;7.20;;;5.03;;
6217;SDS011;3142;48.206;11.550;2024-03-17T10:25:53;3.33;;;2.50;;
6217;SDS011;3142;48.206;11.550;2024-03-17T10:28:20;2.90;;;2.08;;
6217;SDS011;3142;48.206;11.550;2024-03-17T10:30:56;3.22;;;2.20;;
6217;SDS011;3142;48.206;11.550;2024-03-17T10:33:24;3.22;;;1.98;;
6217;SDS011;3142;48.206;11.550;2024-03-17T10:35:57;4.38;;;3.70;;
6217;SDS011;3142;48.206;11.550;2024-03-17T10:38:25;3.63;;;2.45;;
6217;SDS011;3142;48.206;11.550;2024-03-17T10:40:53;7.18;;;1.90;;
6217;SDS011;3142;48.206;11.550;2024-03-17T10:43:20;2.30;;;1.90;;
6217;SDS011;3142;48.206;11.550;2024-03-17T10:45:51;1.60;;;1.50;;
6217;SDS011;3142;48.206;11.550;2024-03-17T10:48:19;2.45;;;1.83;;
6217;SDS011;3142;48.206;11.550;2024-03-17T10:50:46;2.50;;;1.87;;
6217;SDS011;3142;48.206;11.550;2024-03-17T10:53:14;3.90;;;2.00;;
6217;SDS011;3142;48.206;11.550;2024-03-17T10:55:51;1.67;;;1.57;;
6217;SDS011;3142;48.206;11.550;2024-03-17T10:58:31;3.03;;;1.73;;
6217;SDS011;3142;48.206;11.550;2024-03-17T11:01:00;2.73;;;1.60;;
6217;SDS011;3142;48.206;11.550;2024-03-17T11:03:28;3.03;;;2.07;;
6217;SDS011;3142;48.206;11.550;2024-03-17T11:05:57;4.00;;;2.10;;
6217;SDS011;3142;48.206;11.550;2024-03-17T11:08:24;2.57;;;1.73;;
6217;SDS011;3142;48.206;11.550;2024-03-17T11:10:52;2.97;;;1.80;;
6217;SDS011;3142;48.206;11.550;2024-03-17T11:13:24;3.13;;;2.10;;
6217;SDS011;3142;48.206;11.550;2024-03-17T11:15:51;2.67;;;1.60;;
6217;SDS011;3142;48.206;11.550;2024-03-17T11:18:36;2.53;;;1.83;;
6217;SDS011;3142;48.206;11.550;2024-03-17T11:21:04;1.47;;;1.30;;
6217;SDS011;3142;48.206;11.550;2024-03-17T11:23:40;31.07;;;20.53;;
6217;SDS011;3142;48.206;11.550;2024-03-17T11:26:07;10.23;;;5.68;;
6217;SDS011;3142;48.206;11.550;2024-03-17T11:28:50;5.40;;;1.90;;
6217;SDS011;3142;48.206;11.550;2024-03-17T11:31:34;1.77;;;1.42;;
6217;SDS011;3142;48.206;11.550;2024-03-17T11:34:03;19.38;;;15.27;;
6217;SDS011;3142;48.206;11.550;2024-03-17T11:36:33;6.30;;;3.67;;
6217;SDS011;3142;48.206;11.550;2024-03-17T11:39:02;21.13;;;17.33;;
6217;SDS011;3142;48.206;11.550;2024-03-17T11:41:32;5.53;;;4.17;;
6217;SDS011;3142;48.206;11.550;2024-03-17T11:46:52;3.30;;;1.70;;
6217;SDS011;3142;48.206;11.550;2024-03-17T11:49:20;2.43;;;1.20;;
6217;SDS011;3142;48.206;11.550;2024-03-17T11:51:47;2.13;;;1.20;;
6217;SDS011;3142;48.206;11.550;2024-03-17T11:54:14;3.53;;;1.43;;
6217;SDS011;3142;48.206;11.550;2024-03-17T11:56:45;3.47;;;1.30;;
6217;SDS011;3142;48.206;11.550;2024-03-17T11:59:13;3.33;;;2.00;;
6217;SDS011;3142;48.206;11.550;2024-03-17T12:01:43;4.90;;;2.10;;
6217;SDS011;3142;48.206;11.550;2024-03-17T12:04:12;36.87;;;24.30;;
6217;SDS011;3142;48.206;11.550;2024-03-17T12:06:38;4.30;;;2.70;;
6217;SDS011;3142;48.206;11.550;2024-03-17T12:09:09;1.87;;;1.33;;
6217;SDS011;3142;48.206;11.550;2024-03-17T12:11:36;3.80;;;1.93;;
6217;SDS011;3142;48.206;11.550;2024-03-17T12:14:11;1.83;;;1.40;;
6217;SDS011;3142;48.206;11.550;2024-03-17T12:16:47;5.67;;;1.77;;
6217;SDS011;3142;48.206;11.550;2024-03-17T12:19:15;2.40;;;1.80;;
6217;SDS011;3142;48.206;11.550;2024-03-17T12:21:42;3.13;;;1.70;;
6217;SDS011;3142;48.206;11.550;2024-03-17T12:24:12;3.63;;;1.70;;
6217;SDS011;3142;48.206;11.550;2024-03-17T12:26:40;4.23;;;1.60;;
6217;SDS011;3142;48.206;11.550;2024-03-17T12:29:20;2.77;;;1.50;;
6217;SDS011;3142;48.206;11.550;2024-03-17T12:31:49;3.43;;;1.77;;
6217;SDS011;3142;48.206;11.550;2024-03-17T12:34:16;3.23;;;1.30;;
6217;SDS011;3142;48.206;11.550;2024-03-17T12:39:10;4.43;;;1.73;;
6217;SDS011;3142;48.206;11.550;2024-03-17T12:41:36;3.90;;;1.70;;
6217;SDS011;3142;48.206;11.550;2024-03-17T12:44:03;3.20;;;1.77;;
6217;SDS011;3142;48.206;11.550;2024-03-17T12:46:28;5.03;;;1.50;;
6217;SDS011;3142;48.206;11.550;2024-03-17T12:48:59;3.23;;;1.70;;
6217;SDS011;3142;48.206;11.550;2024-03-17T12:51:25;2.30;;;1.33;;
6217;SDS011;3142;48.206;11.550;2024-03-17T12:56:37;3.53;;;1.20;;
6217;SDS011;3142;48.206;11.550;2024-03-17T12:59:21;3.67;;;1.50;;
6217;SDS011;3142;48.206;11.550;2024-03-17T13:02:06;3.17;;;1.93;;
6217;SDS011;3142;48.206;11.550;2024-03-17T13:04:38;4.13;;;1.30;;
6217;SDS011;3142;48.206;11.550;2024-03-17T13:07:11;2.37;;;1.57;;
6217;SDS011;3142;48.206;11.550;2024-03-17T13:09:37;3.57;;;1.60;;
6217;SDS011;3142;48.206;11.550;2024-03-17T13:12:12;2.43;;;1.33;;
6217;SDS011;3142;48.206;11.550;2024-03-17T13:14:41;2.03;;;1.27;;
6217;SDS011;3142;48.206;11.550;2024-03-17T13:17:08;2.37;;;1.40;;
6217;SDS011;3142;48.206;11.550;2024-03-17T13:19:44;3.57;;;1.60;;
6217;SDS011;3142;48.206;11.550;2024-03-17T13:22:11;2.90;;;1.33;;
6217;SDS011;3142;48.206;11.550;2024-03-17T13:24:38;2.77;;;1.30;;
6217;SDS011;3142;48.206;11.550;2024-03-17T13:27:04;3.43;;;1.33;;
6217;SDS011;3142;48.206;11.550;2024-03-17T13:29:33;2.80;;;1.43;;
6217;SDS011;3142;48.206;11.550;2024-03-17T13:32:01;2.90;;;1.67;;
6217;SDS011;3142;48.206;11.550;2024-03-17T13:34:27;1.87;;;1.40;;
6217;SDS011;3142;48.206;11.550;2024-03-17T13:36:55;1.63;;;1.10;;
6217;SDS011;3142;48.206;11.550;2024-03-17T13:39:22;3.57;;;1.40;;
6217;SDS011;3142;48.206;11.550;2024-03-17T13:41:49;2.17;;;1.50;;
6217;SDS011;3142;48.206;11.550;2024-03-17T13:44:17;3.13;;;1.50;;
6217;SDS011;3142;48.206;11.550;2024-03-17T13:46:44;3.33;;;1.60;;
6217;SDS011;3142;48.206;11.550;2024-03-17T13:49:10;1.50;;;1.30;;
6217;SDS011;3142;48.206;11.550;2024-03-17T13:51:37;3.80;;;1.70;;
6217;SDS011;3142;48.206;11.550;2024-03-17T13:54:05;2.93;;;1.40;;
6217;SDS011;3142;48.206;11.550;2024-03-17T13:56:31;3.40;;;1.47;;
6217;SDS011;3142;48.206;11.550;2024-03-17T13:58:57;2.93;;;1.93;;
6217;SDS011;3142;48.206;11.550;2024-03-17T14:01:24;2.37;;;1.37;;
6217;SDS011;3142;48.206;11.550;2024-03-17T14:03:50;6.37;;;4.03;;
6217;SDS011;3142;48.206;11.550;2024-03-17T14:06:17;5.30;;;2.40;;
6217;SDS011;3142;48.206;11.550;2024-03-17T14:08:44;2.83;;;2.23;;
6217;SDS011;3142;48.206;11.550;2024-03-17T14:11:12;10.63;;;6.40;;
6217;SDS011;3142;48.206;11.550;2024-03-17T14:13:38;3.93;;;2.00;;
6217;SDS011;3142;48.206;11.550;2024-03-17T14:16:05;3.20;;;1.70;;
6217;SDS011;3142;48.206;11.550;2024-03-17T14:18:31;3.77;;;1.87;;
6217;SDS011;3142;48.206;11.550;2024-03-17T14:20:58;5.60;;;2.27;;
6217;SDS011;3142;48.206;11.550;2024-03-17T14:23:24;3.43;;;1.80;;
6217;SDS011;3142;48.206;11.550;2024-03-17T14:25:51;2.83;;;1.90;;
6217;SDS011;3142;48.206;11.550;2024-03-17T14:28:18;3.53;;;1.60;;
6217;SDS011;3142;48.206;11.550;2024-03-17T14:30:46;2.57;;;1.47;;
6217;SDS011;3142;48.206;11.550;2024-03-17T14:33:13;2.20;;;1.57;;
6217;SDS011;3142;48.206;11.550;2024-03-17T14:35:39;4.90;;;1.47;;
6217;SDS011;3142;48.206;11.550;2024-03-17T14:38:06;3.80;;;1.70;;
6217;SDS011;3142;48.206;11.550;2024-03-17T14:40:34;4.23;;;1.53;;
6217;SDS011;3142;48.206;11.550;2024-03-17T14:43:00;5.67;;;3.47;;
6217;SDS011;3142;48.206;11.550;2024-03-17T14:45:29;47.10;;;29.40;;
6217;SDS011;3142;48.206;11.550;2024-03-17T14:47:55;8.63;;;4.70;;
6217;SDS011;3142;48.206;11.550;2024-03-17T14:50:22;3.57;;;1.67;;
6217;SDS011;3142;48.206;11.550;2024-03-17T14:52:48;2.47;;;1.30;;
6217;SDS011;3142;48.206;11.550;2024-03-17T14:55:15;5.90;;;3.47;;
6217;SDS011;3142;48.206;11.550;2024-03-17T14:57:41;3.17;;;2.23;;
6217;SDS011;3142;48.206;11.550;2024-03-17T15:00:08;9.07;;;6.27;;
6217;SDS011;3142;48.206;11.550;2024-03-17T15:02:42;5.90;;;2.63;;
6217;SDS011;3142;48.206;11.550;2024-03-17T15:05:10;3.97;;;1.87;;
6217;SDS011;3142;48.206;11.550;2024-03-17T15:07:37;4.37;;;1.53;;
6217;SDS011;3142;48.206;11.550;2024-03-17T15:10:04;3.43;;;1.53;;